createdAt,value
2018-03-01T06:29:54.285Z,46.57
2018-03-01T06:32:20.464Z,50.40
2018-03-01T06:34:46.622Z,28.63
2018-03-01T06:37:12.798Z,27.43
2018-03-01T06:39:39.734Z,49.43
2018-03-01T06:42:05.912Z,25.57
2018-03-01T06:44:32.828Z,27.40
2018-03-01T06:46:59.030Z,27.77
2018-03-01T06:49:25.913Z,32.30
2018-03-01T06:51:52.833Z,20.73
2018-03-01T06:54:19.037Z,25.83
2018-03-01T06:56:45.925Z,25.67
2018-03-01T06:59:12.086Z,23.07
2018-03-01T07:01:38.265Z,25.37
2018-03-01T07:04:04.448Z,24.00
2018-03-01T07:06:31.373Z,24.87
2018-03-01T07:08:57.529Z,27.73
2018-03-01T07:11:23.724Z,27.27
2018-03-01T07:13:50.634Z,23.13
2018-03-01T07:16:16.816Z,22.43
2018-03-01T07:18:43.153Z,20.77
2018-03-01T07:21:09.317Z,27.13
2018-03-01T07:23:35.492Z,28.27
2018-03-01T07:26:01.649Z,22.10
2018-03-01T07:28:28.554Z,30.07
2018-03-01T07:30:54.708Z,22.53
2018-03-01T07:33:20.857Z,20.60
2018-03-01T07:35:47.015Z,22.70
2018-03-01T07:38:13.216Z,21.00
2018-03-01T07:40:39.401Z,22.27
2018-03-01T07:43:05.553Z,23.42
2018-03-01T07:45:31.785Z,23.17
2018-03-01T07:47:57.925Z,22.73
2018-03-01T07:50:24.857Z,20.73
2018-03-01T07:52:51.032Z,22.00
2018-03-01T07:55:17.189Z,24.33
2018-03-01T07:57:43.373Z,21.07
2018-03-01T08:00:09.529Z,21.52
2018-03-01T08:02:35.681Z,18.12
2018-03-01T08:05:01.845Z,22.52
2018-03-01T08:07:28.057Z,19.20
2018-03-01T08:09:54.937Z,21.37
2018-03-01T08:12:21.078Z,18.73
2018-03-01T08:14:47.980Z,18.17
2018-03-01T08:17:14.117Z,17.20
2018-03-01T08:19:40.294Z,17.75
2018-03-01T08:22:06.461Z,16.00
2018-03-01T08:24:32.629Z,17.40
2018-03-01T08:26:58.844Z,22.27
2018-03-01T08:29:25.032Z,18.45
2018-03-01T08:31:51.965Z,18.60
2018-03-01T08:34:18.142Z,15.20
2018-03-01T08:36:44.297Z,17.30
2018-03-01T08:39:10.473Z,12.13
2018-03-01T08:41:37.364Z,16.13
2018-03-01T08:44:03.537Z,14.80
2018-03-01T08:46:29.706Z,17.27
2018-03-01T08:48:55.880Z,15.13
2018-03-01T08:51:22.061Z,19.40
2018-03-01T08:53:48.237Z,20.30
2018-03-01T08:56:14.397Z,17.47
2018-03-01T08:58:40.533Z,16.23
2018-03-01T09:01:06.704Z,16.93
2018-03-01T09:03:32.873Z,15.73
2018-03-01T09:05:59.037Z,14.13
2018-03-01T09:08:25.200Z,15.20
2018-03-01T09:10:52.155Z,18.52
2018-03-01T09:13:18.333Z,14.73
2018-03-01T09:15:45.242Z,15.02
2018-03-01T09:18:11.421Z,14.63
2018-03-01T09:20:37.565Z,11.27
2018-03-01T09:23:03.754Z,17.13
2018-03-01T09:25:30.656Z,13.60
2018-03-01T09:27:56.781Z,14.38
2018-03-01T09:30:22.957Z,11.70
2018-03-01T09:32:49.113Z,13.87
2018-03-01T09:35:15.281Z,12.17
2018-03-01T09:37:41.441Z,12.15
2018-03-01T09:40:07.661Z,13.57
2018-03-01T09:42:33.825Z,13.45
2018-03-01T09:44:59.985Z,11.50
2018-03-01T09:47:26.156Z,12.83
2018-03-01T09:49:52.341Z,11.90
2018-03-01T09:52:19.283Z,18.45
2018-03-01T09:54:45.465Z,12.73
2018-03-01T09:57:12.597Z,11.10
2018-03-01T09:59:38.773Z,14.27
2018-03-01T10:02:06.057Z,11.43
2018-03-01T10:04:32.974Z,12.90
2018-03-01T10:06:59.141Z,13.17
2018-03-01T10:09:25.325Z,12.82
2018-03-01T10:11:52.242Z,10.97
2018-03-01T10:14:18.393Z,11.10
2018-03-01T10:16:44.557Z,10.80
2018-03-01T10:19:10.709Z,12.13
2018-03-01T10:21:36.910Z,10.20
2018-03-01T10:24:03.821Z,11.00
2018-03-01T10:26:29.977Z,13.33
2018-03-01T10:28:56.130Z,12.02
2018-03-01T10:31:22.281Z,10.60
2018-03-01T10:33:48.457Z,11.02
2018-03-01T10:36:14.603Z,10.30
2018-03-01T10:38:40.757Z,13.02
2018-03-01T10:41:07.686Z,11.35
2018-03-01T10:43:33.833Z,11.52
2018-03-01T10:46:00.012Z,12.95
2018-03-01T10:48:26.214Z,12.43
2018-03-01T10:50:52.409Z,12.02
2018-03-01T10:53:18.560Z,9.88
2018-03-01T10:55:44.765Z,11.48
2018-03-01T10:58:11.657Z,10.48
2018-03-01T11:00:43.810Z,11.55
2018-03-01T11:03:10.720Z,11.43
2018-03-01T11:05:36.897Z,9.83
2018-03-01T11:08:03.072Z,10.40
2018-03-01T11:10:29.276Z,10.48
2018-03-01T11:12:55.464Z,12.13
2018-03-01T11:15:21.609Z,11.88
2018-03-01T11:17:47.789Z,9.83
2018-03-01T11:20:14.733Z,9.50
2018-03-01T11:22:40.913Z,10.55
2018-03-01T11:25:07.845Z,9.37
2018-03-01T11:27:34.041Z,10.97
2018-03-01T11:30:00.985Z,8.93
2018-03-01T11:32:27.197Z,10.03
2018-03-01T11:34:53.397Z,11.57
2018-03-01T11:37:19.537Z,10.77
2018-03-01T11:39:45.693Z,11.50
2018-03-01T11:42:11.839Z,9.50
2018-03-01T11:44:37.989Z,9.40
2018-03-01T11:47:04.181Z,10.50
2018-03-01T11:49:30.349Z,8.48
2018-03-01T11:51:56.533Z,11.45
2018-03-01T11:54:22.680Z,10.15
2018-03-01T11:56:48.840Z,9.90
2018-03-01T11:59:15.009Z,9.38
2018-03-01T12:01:41.945Z,9.80
2018-03-01T12:04:08.110Z,9.77
2018-03-01T12:06:34.273Z,11.63
2018-03-01T12:09:00.448Z,9.93
2018-03-01T12:11:27.353Z,10.37
2018-03-01T12:13:53.500Z,10.43
2018-03-01T12:16:19.689Z,8.88
2018-03-01T12:18:45.834Z,10.38
2018-03-01T12:21:12.005Z,9.27
2018-03-01T12:23:38.893Z,9.93
2018-03-01T12:26:05.081Z,10.53
2018-03-01T12:28:31.245Z,10.97
2018-03-01T12:30:57.417Z,9.10
2018-03-01T12:33:23.564Z,8.37
2018-03-01T12:35:49.738Z,10.43
2018-03-01T12:38:16.657Z,11.15
2018-03-01T12:40:42.814Z,11.55
2018-03-01T12:43:08.989Z,10.17
2018-03-01T12:45:35.118Z,9.57
2018-03-01T12:48:01.297Z,9.98
2018-03-01T12:50:27.522Z,10.18
2018-03-01T12:52:53.709Z,9.95
2018-03-01T12:55:20.641Z,11.32
2018-03-01T12:57:46.877Z,9.37
2018-03-01T13:00:13.093Z,8.52
2018-03-01T13:02:40.013Z,10.32
2018-03-01T13:05:09.120Z,9.52
2018-03-01T13:07:35.305Z,9.55
2018-03-01T13:10:01.506Z,8.65
2018-03-01T13:12:27.717Z,9.77
2018-03-01T13:14:53.872Z,8.30
2018-03-01T13:17:20.082Z,9.15
2018-03-01T13:19:46.278Z,8.90
2018-03-01T13:22:12.485Z,7.57
2018-03-01T13:24:38.642Z,9.82
2018-03-01T13:27:04.846Z,9.48
2018-03-01T13:29:31.760Z,7.83
2018-03-01T13:31:58.752Z,8.98
2018-03-01T13:34:29.904Z,8.70
2018-03-01T13:36:56.093Z,8.38
2018-03-01T13:39:23.029Z,9.37
2018-03-01T13:41:49.221Z,8.83
2018-03-01T13:44:16.206Z,8.43
2018-03-01T13:46:45.329Z,9.90
2018-03-01T13:49:11.489Z,8.20
2018-03-01T13:51:37.693Z,8.40
2018-03-01T13:54:03.877Z,8.77
2018-03-01T13:56:30.837Z,8.03
2018-03-01T13:58:57.761Z,9.17
2018-03-01T14:01:23.969Z,9.97
2018-03-01T14:03:50.148Z,8.87
2018-03-01T14:06:21.252Z,8.03
2018-03-01T14:08:47.439Z,7.70
2018-03-01T14:11:14.354Z,9.10
2018-03-01T14:13:41.544Z,8.07
2018-03-01T14:16:07.746Z,7.95
2018-03-01T14:18:34.849Z,9.32
2018-03-01T14:21:09.013Z,8.17
2018-03-01T14:26:57.977Z,7.57
2018-03-01T14:29:30.836Z,10.23
2018-03-01T14:31:57.034Z,8.90
2018-03-01T14:34:23.969Z,7.23
2018-03-01T14:36:50.162Z,8.07
2018-03-01T14:39:17.070Z,8.07
2018-03-01T14:41:43.253Z,7.60
2018-03-01T14:44:09.413Z,8.10
2018-03-01T14:46:35.597Z,7.72
2018-03-01T14:49:02.569Z,8.13
2018-03-01T14:51:28.758Z,8.23
2018-03-01T14:53:54.905Z,7.72
2018-03-01T14:56:21.077Z,7.60
2018-03-01T14:58:47.257Z,7.50
2018-03-01T15:01:14.165Z,7.00
2018-03-01T15:03:40.361Z,8.90
2018-03-01T15:06:06.557Z,8.35
2018-03-01T15:08:32.745Z,8.02
2018-03-01T15:10:58.929Z,8.10
2018-03-01T15:13:25.173Z,7.68
2018-03-01T15:15:51.344Z,8.80
2018-03-01T15:18:18.329Z,9.48
2018-03-01T15:20:44.525Z,7.28
2018-03-01T15:23:10.685Z,7.90
2018-03-01T15:25:36.845Z,9.45
2018-03-01T15:28:03.072Z,9.07
2018-03-01T15:30:29.228Z,12.20
2018-03-01T15:32:55.412Z,20.85
2018-03-01T15:35:22.330Z,26.87
2018-03-01T15:37:48.485Z,25.27
2018-03-01T15:40:14.657Z,25.58
2018-03-01T15:42:40.825Z,26.77
2018-03-01T15:45:06.993Z,26.70
2018-03-01T15:47:33.917Z,23.27
2018-03-01T15:50:00.081Z,24.13
2018-03-01T15:52:26.265Z,23.30
2018-03-01T15:54:53.193Z,22.20
2018-03-01T15:57:19.329Z,22.30
2018-03-01T15:59:45.513Z,23.30
2018-03-01T16:02:11.908Z,20.90
2018-03-01T16:04:38.087Z,21.95
2018-03-01T16:07:04.261Z,21.60
2018-03-01T16:09:30.461Z,22.98
2018-03-01T16:11:56.633Z,21.42
2018-03-01T16:14:22.787Z,20.25
2018-03-01T16:16:48.969Z,19.27
2018-03-01T16:19:15.149Z,20.65
2018-03-01T16:21:42.055Z,22.20
2018-03-01T16:24:08.274Z,20.23
2018-03-01T16:26:35.165Z,18.77
2018-03-01T16:29:01.333Z,20.33
2018-03-01T16:31:27.536Z,18.62
2018-03-01T16:33:54.458Z,18.90
2018-03-01T16:36:20.608Z,20.33
2018-03-01T16:38:46.792Z,16.65
2018-03-01T16:41:12.973Z,17.67
2018-03-01T16:43:39.885Z,18.90
2018-03-01T16:46:06.117Z,17.80
2018-03-01T16:48:32.317Z,16.48
2018-03-01T16:50:58.472Z,17.90
2018-03-01T16:53:24.632Z,18.60
2018-03-01T16:55:50.794Z,16.52
2018-03-01T16:58:17.712Z,17.90
2018-03-01T17:00:43.853Z,18.23
2018-03-01T17:03:10.036Z,16.05
2018-03-01T17:05:36.233Z,18.50
2018-03-01T17:08:02.416Z,16.75
2018-03-01T17:10:28.573Z,16.62
2018-03-01T17:12:54.706Z,17.37
2018-03-01T17:15:20.888Z,16.83
2018-03-01T17:17:47.017Z,17.62
2018-03-01T17:20:13.193Z,15.93
2018-03-01T17:22:39.333Z,15.93
2018-03-01T17:25:05.509Z,17.48
2018-03-01T17:27:31.700Z,20.90
2018-03-01T17:29:57.881Z,24.40
2018-03-01T17:32:24.059Z,40.65
2018-03-01T17:34:50.217Z,23.67
2018-03-01T17:37:16.408Z,22.87
2018-03-01T17:39:42.579Z,18.55
2018-03-01T17:42:08.754Z,24.80
2018-03-01T17:44:34.933Z,17.20
2018-03-01T17:47:01.842Z,17.40
2018-03-01T17:49:28.049Z,22.25
2018-03-01T17:51:54.953Z,17.73
2018-03-01T17:54:21.165Z,16.52
2018-03-01T17:56:47.330Z,21.55
2018-03-01T17:59:14.226Z,22.58
2018-03-01T18:01:40.405Z,20.02
2018-03-01T18:04:06.577Z,19.85
2018-03-01T18:06:32.758Z,20.33
2018-03-01T18:08:58.902Z,20.60
2018-03-01T18:11:25.834Z,16.23
2018-03-01T18:13:52.005Z,16.27
2018-03-01T18:16:18.923Z,15.13
2018-03-01T18:18:47.270Z,20.08
2018-03-01T18:21:13.417Z,18.02
2018-03-01T18:23:39.597Z,15.10
2018-03-01T18:26:06.470Z,14.27
2018-03-01T18:28:33.405Z,15.30
2018-03-01T18:30:59.581Z,14.70
2018-03-01T18:33:26.493Z,20.00
2018-03-01T18:35:52.665Z,13.25
2018-03-01T18:38:18.837Z,16.70
2018-03-01T18:40:45.010Z,15.15
2018-03-01T18:43:11.947Z,18.27
2018-03-01T18:45:38.088Z,15.63
2018-03-01T18:48:04.258Z,16.77
2018-03-01T18:50:30.457Z,13.85
2018-03-01T18:52:56.629Z,15.10
2018-03-01T18:55:22.790Z,14.07
2018-03-01T18:57:48.986Z,13.75
2018-03-01T19:00:15.888Z,14.43
2018-03-01T19:02:42.017Z,14.85
2018-03-01T19:05:08.201Z,13.20
2018-03-01T19:07:34.377Z,15.50
2018-03-01T19:10:00.533Z,12.10
2018-03-01T19:12:26.705Z,15.82
2018-03-01T19:14:53.629Z,14.20
2018-03-01T19:17:19.821Z,14.30
2018-03-01T19:19:45.989Z,14.00
2018-03-01T19:22:12.913Z,14.73
2018-03-01T19:24:39.109Z,14.48
2018-03-01T19:27:06.029Z,12.70
2018-03-01T19:29:32.213Z,14.00
2018-03-01T19:31:58.387Z,13.55
2018-03-01T19:34:24.669Z,13.62
2018-03-01T19:36:50.882Z,14.27
2018-03-01T19:39:17.776Z,13.90
2018-03-01T19:41:43.969Z,11.95
2018-03-01T19:44:10.158Z,13.50
2018-03-01T19:46:37.109Z,15.37
2018-03-01T19:49:03.606Z,12.02
2018-03-01T19:51:29.781Z,12.43
2018-03-01T19:53:56.262Z,12.93
2018-03-01T19:56:22.425Z,13.35
2018-03-01T19:58:48.602Z,14.13
2018-03-01T20:01:15.650Z,13.02
2018-03-01T20:03:41.865Z,23.77
